sensor_id;sensor_type;location;lat;lon;timestamp;pressure;altitude;pressure_sealevel;temperature;humidity
45941;BME280;31858;46.008;8.978;2023-02-19T00:03:07;95195.84;;;6.54;100.00
45941;BME280;31858;46.008;8.978;2023-02-19T00:13:09;95190.88;;;6.28;100.00
45941;BME280;31858;46.008;8.978;2023-02-19T00:23:12;95189.06;;;6.20;100.00
45941;BME280;31858;46.008;8.978;2023-02-19T00:33:14;95181.59;;;6.22;100.00
45941;BME280;31858;46.008;8.978;2023-02-19T00:43:17;95171.31;;;6.20;100.00
45941;BME280;31858;46.008;8.978;2023-02-19T00:53:19;95173.53;;;6.18;100.00
45941;BME280;31858;46.008;8.978;2023-02-19T01:03:22;95176.06;;;6.15;100.00
45941;BME280;31858;46.008;8.978;2023-02-19T01:13:23;95167.19;;;5.99;100.00
45941;BME280;31858;46.008;8.978;2023-02-19T01:23:26;95161.94;;;6.11;100.00
45941;BME280;31858;46.008;8.978;2023-02-19T01:33:28;95151.34;;;6.11;100.00
45941;BME280;31858;46.008;8.978;2023-02-19T01:43:32;95161.16;;;6.10;100.00
45941;BME280;31858;46.008;8.978;2023-02-19T01:53:36;95151.44;;;6.02;100.00
45941;BME280;31858;46.008;8.978;2023-02-19T02:03:43;95138.00;;;6.07;100.00
45941;BME280;31858;46.008;8.978;2023-02-19T02:13:48;95117.13;;;5.94;100.00
45941;BME280;31858;46.008;8.978;2023-02-19T02:24:04;95105.66;;;5.89;100.00
45941;BME280;31858;46.008;8.978;2023-02-19T02:34:14;95104.09;;;5.88;100.00
45941;BME280;31858;46.008;8.978;2023-02-19T02:44:16;95095.31;;;5.97;100.00
45941;BME280;31858;46.008;8.978;2023-02-19T02:54:20;95073.94;;;5.89;100.00
45941;BME280;31858;46.008;8.978;2023-02-19T03:04:47;95063.97;;;5.86;100.00
45941;BME280;31858;46.008;8.978;2023-02-19T03:15:18;95067.34;;;5.75;100.00
45941;BME280;31858;46.008;8.978;2023-02-19T03:25:38;95065.28;;;5.80;100.00
45941;BME280;31858;46.008;8.978;2023-02-19T03:36:01;95063.06;;;5.70;100.00
45941;BME280;31858;46.008;8.978;2023-02-19T03:46:08;95072.94;;;5.61;100.00
45941;BME280;31858;46.008;8.978;2023-02-19T03:56:18;95071.28;;;5.56;100.00
45941;BME280;31858;46.008;8.978;2023-02-19T04:06:25;95060.94;;;5.64;100.00
45941;BME280;31858;46.008;8.978;2023-02-19T04:16:31;95065.91;;;5.65;100.00
45941;BME280;31858;46.008;8.978;2023-02-19T04:26:34;95078.25;;;5.73;100.00
45941;BME280;31858;46.008;8.978;2023-02-19T04:36:38;95071.72;;;5.58;100.00
45941;BME280;31858;46.008;8.978;2023-02-19T04:46:39;95056.88;;;5.66;100.00
45941;BME280;31858;46.008;8.978;2023-02-19T04:56:42;95059.00;;;5.85;100.00
45941;BME280;31858;46.008;8.978;2023-02-19T05:06:44;95059.13;;;5.88;100.00
45941;BME280;31858;46.008;8.978;2023-02-19T05:16:47;95056.47;;;5.76;100.00
45941;BME280;31858;46.008;8.978;2023-02-19T05:26:48;95047.09;;;5.79;100.00
45941;BME280;31858;46.008;8.978;2023-02-19T05:36:51;95048.94;;;5.66;100.00
45941;BME280;31858;46.008;8.978;2023-02-19T05:46:53;95048.28;;;5.69;100.00
45941;BME280;31858;46.008;8.978;2023-02-19T05:56:56;95066.66;;;5.66;100.00
45941;BME280;31858;46.008;8.978;2023-02-19T06:06:58;95055.00;;;5.67;100.00
45941;BME280;31858;46.008;8.978;2023-02-19T06:17:01;95051.81;;;5.73;100.00
45941;BME280;31858;46.008;8.978;2023-02-19T06:27:04;95062.94;;;5.67;100.00
45941;BME280;31858;46.008;8.978;2023-02-19T06:37:07;95053.66;;;5.61;100.00
45941;BME280;31858;46.008;8.978;2023-02-19T06:47:08;95053.66;;;5.61;100.00
45941;BME280;31858;46.008;8.978;2023-02-19T06:57:11;95038.25;;;5.63;100.00
45941;BME280;31858;46.008;8.978;2023-02-19T07:07:13;95052.91;;;5.72;100.00
45941;BME280;31858;46.008;8.978;2023-02-19T07:17:16;95043.00;;;5.69;100.00
45941;BME280;31858;46.008;8.978;2023-02-19T07:27:17;95075.69;;;5.65;100.00
45941;BME280;31858;46.008;8.978;2023-02-19T07:37:20;95068.78;;;5.72;100.00
45941;BME280;31858;46.008;8.978;2023-02-19T07:47:22;95078.75;;;5.87;100.00
45941;BME280;31858;46.008;8.978;2023-02-19T07:57:26;95075.91;;;5.93;100.00
45941;BME280;31858;46.008;8.978;2023-02-19T08:07:30;95072.06;;;6.02;100.00
45941;BME280;31858;46.008;8.978;2023-02-19T08:17:34;95066.69;;;6.11;100.00
45941;BME280;31858;46.008;8.978;2023-02-19T08:27:35;95061.41;;;6.23;100.00
45941;BME280;31858;46.008;8.978;2023-02-19T08:37:38;95051.25;;;6.25;100.00
45941;BME280;31858;46.008;8.978;2023-02-19T08:47:40;95051.03;;;6.30;100.00
45941;BME280;31858;46.008;8.978;2023-02-19T08:57:43;95060.97;;;6.33;100.00
45941;BME280;31858;46.008;8.978;2023-02-19T09:07:44;95058.66;;;6.44;100.00
45941;BME280;31858;46.008;8.978;2023-02-19T09:17:51;95049.56;;;6.57;100.00
45941;BME280;31858;46.008;8.978;2023-02-19T09:27:54;95047.03;;;6.61;100.00
45941;BME280;31858;46.008;8.978;2023-02-19T09:37:59;95056.63;;;6.65;100.00
45941;BME280;31858;46.008;8.978;2023-02-19T09:48:01;95049.78;;;6.76;100.00
45941;BME280;31858;46.008;8.978;2023-02-19T09:58:17;95048.97;;;6.88;100.00
45941;BME280;31858;46.008;8.978;2023-02-19T10:08:23;95046.84;;;7.06;100.00
45941;BME280;31858;46.008;8.978;2023-02-19T10:18:28;95046.81;;;7.46;100.00
45941;BME280;31858;46.008;8.978;2023-02-19T10:28:33;95044.75;;;8.14;100.00
45941;BME280;31858;46.008;8.978;2023-02-19T10:38:39;95040.44;;;8.26;100.00
45941;BME280;31858;46.008;8.978;2023-02-19T10:48:49;95035.66;;;8.31;100.00
45941;BME280;31858;46.008;8.978;2023-02-19T10:58:53;95029.00;;;8.37;100.00
45941;BME280;31858;46.008;8.978;2023-02-19T11:08:56;95026.94;;;8.46;100.00
45941;BME280;31858;46.008;8.978;2023-02-19T11:19:00;95030.13;;;8.71;100.00
45941;BME280;31858;46.008;8.978;2023-02-19T11:29:15;95019.28;;;8.96;100.00
45941;BME280;31858;46.008;8.978;2023-02-19T11:39:24;94997.72;;;9.20;100.00
45941;BME280;31858;46.008;8.978;2023-02-19T11:49:36;94979.84;;;9.40;100.00
45941;BME280;31858;46.008;8.978;2023-02-19T11:59:47;94964.44;;;9.49;100.00
45941;BME280;31858;46.008;8.978;2023-02-19T12:10:02;94943.47;;;9.67;100.00
45941;BME280;31858;46.008;8.978;2023-02-19T12:20:17;94935.88;;;9.92;100.00
45941;BME280;31858;46.008;8.978;2023-02-19T12:30:33;94911.38;;;10.05;100.00
45941;BME280;31858;46.008;8.978;2023-02-19T12:40:49;94901.63;;;10.39;100.00
45941;BME280;31858;46.008;8.978;2023-02-19T12:50:56;94898.59;;;10.74;100.00
45941;BME280;31858;46.008;8.978;2023-02-19T13:01:01;94881.09;;;11.10;100.00
45941;BME280;31858;46.008;8.978;2023-02-19T13:11:05;94872.97;;;11.37;100.00
45941;BME280;31858;46.008;8.978;2023-02-19T13:21:12;94869.03;;;11.64;100.00
45941;BME280;31858;46.008;8.978;2023-02-19T13:31:46;94859.72;;;11.95;100.00
45941;BME280;31858;46.008;8.978;2023-02-19T13:41:53;94849.25;;;12.31;100.00
45941;BME280;31858;46.008;8.978;2023-02-19T13:51:57;94852.84;;;12.67;100.00
45941;BME280;31858;46.008;8.978;2023-02-19T14:12:36;94831.56;;;12.95;100.00
45941;BME280;31858;46.008;8.978;2023-02-19T14:23:07;94832.75;;;13.19;100.00
45941;BME280;31858;46.008;8.978;2023-02-19T14:33:17;94820.53;;;13.25;100.00
45941;BME280;31858;46.008;8.978;2023-02-19T14:43:22;94823.97;;;13.33;100.00
45941;BME280;31858;46.008;8.978;2023-02-19T14:53:27;94796.44;;;13.29;100.00
45941;BME280;31858;46.008;8.978;2023-02-19T15:03:32;94805.63;;;13.24;100.00
45941;BME280;31858;46.008;8.978;2023-02-19T15:13:35;94800.28;;;13.21;100.00
45941;BME280;31858;46.008;8.978;2023-02-19T15:23:37;94803.28;;;13.16;100.00
45941;BME280;31858;46.008;8.978;2023-02-19T15:33:48;94803.66;;;13.14;100.00
45941;BME280;31858;46.008;8.978;2023-02-19T15:43:52;94789.19;;;13.19;100.00
45941;BME280;31858;46.008;8.978;2023-02-19T15:54:03;94779.63;;;13.21;100.00
45941;BME280;31858;46.008;8.978;2023-02-19T16:04:11;94794.50;;;13.12;100.00
45941;BME280;31858;46.008;8.978;2023-02-19T16:14:23;94799.09;;;12.97;100.00
45941;BME280;31858;46.008;8.978;2023-02-19T16:24:30;94807.41;;;12.67;100.00
45941;BME280;31858;46.008;8.978;2023-02-19T16:34:39;94825.72;;;12.61;100.00
45941;BME280;31858;46.008;8.978;2023-02-19T16:44:41;94838.97;;;12.33;100.00
45941;BME280;31858;46.008;8.978;2023-02-19T16:54:46;94856.59;;;11.83;100.00
45941;BME280;31858;46.008;8.978;2023-02-19T17:04:48;94867.34;;;11.46;100.00
45941;BME280;31858;46.008;8.978;2023-02-19T17:14:52;94884.38;;;11.34;100.00
45941;BME280;31858;46.008;8.978;2023-02-19T17:24:53;94895.56;;;11.09;100.00
45941;BME280;31858;46.008;8.978;2023-02-19T17:34:56;94904.03;;;10.82;100.00
45941;BME280;31858;46.008;8.978;2023-02-19T17:44:58;94919.00;;;10.93;100.00
45941;BME280;31858;46.008;8.978;2023-02-19T17:55:01;94929.41;;;10.72;100.00
45941;BME280;31858;46.008;8.978;2023-02-19T18:05:02;94947.06;;;10.54;100.00
45941;BME280;31858;46.008;8.978;2023-02-19T18:15:07;94950.69;;;10.38;100.00
45941;BME280;31858;46.008;8.978;2023-02-19T18:25:09;94948.63;;;10.28;100.00
45941;BME280;31858;46.008;8.978;2023-02-19T18:35:13;94956.53;;;10.21;100.00
45941;BME280;31858;46.008;8.978;2023-02-19T18:45:15;94967.75;;;10.11;100.00
45941;BME280;31858;46.008;8.978;2023-02-19T18:55:18;94965.44;;;10.09;100.00
45941;BME280;31858;46.008;8.978;2023-02-19T19:05:20;94969.31;;;9.89;100.00
45941;BME280;31858;46.008;8.978;2023-02-19T19:15:23;94975.09;;;9.72;100.00
45941;BME280;31858;46.008;8.978;2023-02-19T19:25:25;94988.28;;;9.88;100.00
45941;BME280;31858;46.008;8.978;2023-02-19T19:35:28;95010.88;;;9.74;100.00
45941;BME280;31858;46.008;8.978;2023-02-19T19:45:30;95024.34;;;9.62;100.00
45941;BME280;31858;46.008;8.978;2023-02-19T19:55:32;95036.09;;;9.61;100.00
45941;BME280;31858;46.008;8.978;2023-02-19T20:05:34;95029.41;;;9.48;100.00
45941;BME280;31858;46.008;8.978;2023-02-19T20:15:37;95041.66;;;9.33;100.00
45941;BME280;31858;46.008;8.978;2023-02-19T20:25:38;95050.59;;;9.44;100.00
45941;BME280;31858;46.008;8.978;2023-02-19T20:35:41;95063.34;;;9.16;100.00
45941;BME280;31858;46.008;8.978;2023-02-19T20:45:43;95072.84;;;9.17;100.00
45941;BME280;31858;46.008;8.978;2023-02-19T20:55:46;95086.09;;;9.33;100.00
45941;BME280;31858;46.008;8.978;2023-02-19T21:05:47;95092.19;;;9.33;100.00
45941;BME280;31858;46.008;8.978;2023-02-19T21:15:50;95090.00;;;9.39;100.00
45941;BME280;31858;46.008;8.978;2023-02-19T21:25:52;95100.22;;;9.37;100.00
45941;BME280;31858;46.008;8.978;2023-02-19T21:35:55;95098.53;;;9.29;100.00
45941;BME280;31858;46.008;8.978;2023-02-19T21:45:57;95097.06;;;9.12;100.00
45941;BME280;31858;46.008;8.978;2023-02-19T21:56:00;95112.22;;;8.92;100.00
45941;BME280;31858;46.008;8.978;2023-02-19T22:06:02;95119.25;;;8.85;100.00
45941;BME280;31858;46.008;8.978;2023-02-19T22:16:05;95117.31;;;8.66;100.00
45941;BME280;31858;46.008;8.978;2023-02-19T22:26:07;95131.00;;;8.68;100.00
45941;BME280;31858;46.008;8.978;2023-02-19T22:36:17;95132.72;;;8.44;100.00
45941;BME280;31858;46.008;8.978;2023-02-19T22:46:21;95145.56;;;8.42;100.00
45941;BME280;31858;46.008;8.978;2023-02-19T22:56:25;95144.81;;;8.42;100.00
45941;BME280;31858;46.008;8.978;2023-02-19T23:06:29;95145.00;;;8.21;100.00
45941;BME280;31858;46.008;8.978;2023-02-19T23:16:32;95150.53;;;8.00;100.00
45941;BME280;31858;46.008;8.978;2023-02-19T23:26:40;95140.50;;;7.94;100.00
45941;BME280;31858;46.008;8.978;2023-02-19T23:36:45;95154.63;;;7.98;100.00
45941;BME280;31858;46.008;8.978;2023-02-19T23:46:48;95166.50;;;8.16;100.00
45941;BME280;31858;46.008;8.978;2023-02-19T23:56:51;95177.44;;;8.14;100.00
